sensor_id;sensor_type;location;lat;lon;timestamp;P1;durP1;ratioP1;P2;durP2;ratioP2
68319;SDS011;55168;51.120;17.024;2022-10-16T00:00:00;11.8;;;9.7;;
68319;SDS011;55168;51.120;17.024;2022-10-16T00:01:10;11.8;;;9.7;;
68319;SDS011;55168;51.120;17.024;2022-10-16T00:02:00;11.3;;;9.9;;
68319;SDS011;55168;51.120;17.024;2022-10-16T00:03:01;11.3;;;9.9;;
68319;SDS011;55168;51.120;17.024;2022-10-16T00:04:00;11.3;;;9.9;;
68319;SDS011;55168;51.120;17.024;2022-10-16T00:05:00;11.3;;;9.9;;
68319;SDS011;55168;51.120;17.024;2022-10-16T00:06:01;11.3;;;9.9;;
68319;SDS011;55168;51.120;17.024;2022-10-16T00:07:00;12.1;;;10.3;;
68319;SDS011;55168;51.120;17.024;2022-10-16T00:08:00;12.1;;;10.3;;
68319;SDS011;55168;51.120;17.024;2022-10-16T00:09:00;12.1;;;10.3;;
68319;SDS011;55168;51.120;17.024;2022-10-16T00:10:00;12.1;;;10.3;;
68319;SDS011;55168;51.120;17.024;2022-10-16T00:11:03;12.1;;;10.3;;
68319;SDS011;55168;51.120;17.024;2022-10-16T00:12:00;14.6;;;12.5;;
68319;SDS011;55168;51.120;17.024;2022-10-16T00:13:00;14.6;;;12.5;;
68319;SDS011;55168;51.120;17.024;2022-10-16T00:14:01;14.6;;;12.5;;
68319;SDS011;55168;51.120;17.024;2022-10-16T00:15:00;14.6;;;12.5;;
68319;SDS011;55168;51.120;17.024;2022-10-16T00:16:00;14.6;;;12.5;;
68319;SDS011;55168;51.120;17.024;2022-10-16T00:17:00;11.8;;;10.2;;
68319;SDS011;55168;51.120;17.024;2022-10-16T00:18:00;11.8;;;10.2;;
68319;SDS011;55168;51.120;17.024;2022-10-16T00:19:00;11.8;;;10.2;;
68319;SDS011;55168;51.120;17.024;2022-10-16T00:20:00;11.8;;;10.2;;
68319;SDS011;55168;51.120;17.024;2022-10-16T00:21:03;11.8;;;10.2;;
68319;SDS011;55168;51.120;17.024;2022-10-16T00:22:00;11.5;;;10.3;;
68319;SDS011;55168;51.120;17.024;2022-10-16T00:23:00;11.5;;;10.3;;
68319;SDS011;55168;51.120;17.024;2022-10-16T00:24:03;11.5;;;10.3;;
68319;SDS011;55168;51.120;17.024;2022-10-16T00:25:00;11.5;;;10.3;;
68319;SDS011;55168;51.120;17.024;2022-10-16T00:26:04;11.5;;;10.3;;
68319;SDS011;55168;51.120;17.024;2022-10-16T00:27:00;10.8;;;9.7;;
68319;SDS011;55168;51.120;17.024;2022-10-16T00:28:00;10.8;;;9.7;;
68319;SDS011;55168;51.120;17.024;2022-10-16T00:29:00;10.8;;;9.7;;
68319;SDS011;55168;51.120;17.024;2022-10-16T00:30:00;10.8;;;9.7;;
68319;SDS011;55168;51.120;17.024;2022-10-16T00:31:04;10.8;;;9.7;;
68319;SDS011;55168;51.120;17.024;2022-10-16T00:32:00;11.7;;;9.9;;
68319;SDS011;55168;51.120;17.024;2022-10-16T00:33:00;11.7;;;9.9;;
68319;SDS011;55168;51.120;17.024;2022-10-16T00:34:00;11.7;;;9.9;;
68319;SDS011;55168;51.120;17.024;2022-10-16T00:35:00;11.7;;;9.9;;
68319;SDS011;55168;51.120;17.024;2022-10-16T00:36:01;11.7;;;9.9;;
68319;SDS011;55168;51.120;17.024;2022-10-16T00:37:00;12.0;;;10.4;;
68319;SDS011;55168;51.120;17.024;2022-10-16T00:38:00;12.0;;;10.4;;
68319;SDS011;55168;51.120;17.024;2022-10-16T00:39:00;12.0;;;10.4;;
68319;SDS011;55168;51.120;17.024;2022-10-16T00:40:00;12.0;;;10.4;;
68319;SDS011;55168;51.120;17.024;2022-10-16T00:41:00;12.0;;;10.4;;
68319;SDS011;55168;51.120;17.024;2022-10-16T00:42:00;11.4;;;10.2;;
68319;SDS011;55168;51.120;17.024;2022-10-16T00:43:00;11.4;;;10.2;;
68319;SDS011;55168;51.120;17.024;2022-10-16T00:44:02;11.4;;;10.2;;
68319;SDS011;55168;51.120;17.024;2022-10-16T00:45:00;11.4;;;10.2;;
68319;SDS011;55168;51.120;17.024;2022-10-16T00:46:01;11.4;;;10.2;;
68319;SDS011;55168;51.120;17.024;2022-10-16T00:47:00;10.8;;;9.7;;
68319;SDS011;55168;51.120;17.024;2022-10-16T00:48:00;10.8;;;9.7;;
68319;SDS011;55168;51.120;17.024;2022-10-16T00:49:02;10.8;;;9.7;;
68319;SDS011;55168;51.120;17.024;2022-10-16T00:50:07;10.8;;;9.7;;
68319;SDS011;55168;51.120;17.024;2022-10-16T00:51:00;10.8;;;9.7;;
68319;SDS011;55168;51.120;17.024;2022-10-16T00:52:00;10.7;;;9.6;;
68319;SDS011;55168;51.120;17.024;2022-10-16T00:53:01;10.7;;;9.6;;
68319;SDS011;55168;51.120;17.024;2022-10-16T00:54:02;10.7;;;9.6;;
68319;SDS011;55168;51.120;17.024;2022-10-16T00:55:02;10.7;;;9.6;;
68319;SDS011;55168;51.120;17.024;2022-10-16T00:56:00;10.7;;;9.6;;
68319;SDS011;55168;51.120;17.024;2022-10-16T00:57:03;11.4;;;8.9;;
68319;SDS011;55168;51.120;17.024;2022-10-16T00:58:00;11.4;;;8.9;;
68319;SDS011;55168;51.120;17.024;2022-10-16T00:59:03;11.4;;;8.9;;
68319;SDS011;55168;51.120;17.024;2022-10-16T01:00:01;11.4;;;8.9;;
68319;SDS011;55168;51.120;17.024;2022-10-16T01:01:00;11.4;;;8.9;;
68319;SDS011;55168;51.120;17.024;2022-10-16T01:02:00;11.4;;;9.1;;
68319;SDS011;55168;51.120;17.024;2022-10-16T01:03:02;11.4;;;9.1;;
68319;SDS011;55168;51.120;17.024;2022-10-16T01:04:00;11.4;;;9.1;;
68319;SDS011;55168;51.120;17.024;2022-10-16T01:05:00;11.4;;;9.1;;
68319;SDS011;55168;51.120;17.024;2022-10-16T01:06:30;11.4;;;9.1;;
68319;SDS011;55168;51.120;17.024;2022-10-16T01:07:06;9.6;;;8.5;;
68319;SDS011;55168;51.120;17.024;2022-10-16T01:08:13;9.6;;;8.5;;
68319;SDS011;55168;51.120;17.024;2022-10-16T01:09:03;9.6;;;8.5;;
68319;SDS011;55168;51.120;17.024;2022-10-16T01:10:22;9.6;;;8.5;;
68319;SDS011;55168;51.120;17.024;2022-10-16T01:11:05;9.6;;;8.5;;
68319;SDS011;55168;51.120;17.024;2022-10-16T01:12:10;11.2;;;8.6;;
68319;SDS011;55168;51.120;17.024;2022-10-16T01:13:11;11.2;;;8.6;;
68319;SDS011;55168;51.120;17.024;2022-10-16T01:14:05;11.2;;;8.6;;
68319;SDS011;55168;51.120;17.024;2022-10-16T01:15:13;11.2;;;8.6;;
68319;SDS011;55168;51.120;17.024;2022-10-16T01:16:05;11.2;;;8.6;;
68319;SDS011;55168;51.120;17.024;2022-10-16T01:17:01;9.9;;;8.5;;
68319;SDS011;55168;51.120;17.024;2022-10-16T01:18:05;9.9;;;8.5;;
68319;SDS011;55168;51.120;17.024;2022-10-16T01:19:04;9.9;;;8.5;;
68319;SDS011;55168;51.120;17.024;2022-10-16T01:20:10;9.9;;;8.5;;
68319;SDS011;55168;51.120;17.024;2022-10-16T01:21:04;9.9;;;8.5;;
68319;SDS011;55168;51.120;17.024;2022-10-16T01:22:01;9.9;;;8.4;;
68319;SDS011;55168;51.120;17.024;2022-10-16T01:24:11;9.9;;;8.4;;
68319;SDS011;55168;51.120;17.024;2022-10-16T01:25:05;9.9;;;8.4;;
68319;SDS011;55168;51.120;17.024;2022-10-16T01:27:06;8.9;;;7.7;;
68319;SDS011;55168;51.120;17.024;2022-10-16T01:28:01;8.9;;;7.7;;
68319;SDS011;55168;51.120;17.024;2022-10-16T01:29:07;8.9;;;7.7;;
68319;SDS011;55168;51.120;17.024;2022-10-16T01:30:12;8.9;;;7.7;;
68319;SDS011;55168;51.120;17.024;2022-10-16T01:31:01;8.9;;;7.7;;
68319;SDS011;55168;51.120;17.024;2022-10-16T01:32:06;9.8;;;8.4;;
68319;SDS011;55168;51.120;17.024;2022-10-16T01:33:05;9.8;;;8.4;;
68319;SDS011;55168;51.120;17.024;2022-10-16T01:34:06;9.8;;;8.4;;
68319;SDS011;55168;51.120;17.024;2022-10-16T01:35:09;9.8;;;8.4;;
68319;SDS011;55168;51.120;17.024;2022-10-16T01:36:05;9.8;;;8.4;;
68319;SDS011;55168;51.120;17.024;2022-10-16T01:37:04;9.2;;;8.3;;
68319;SDS011;55168;51.120;17.024;2022-10-16T01:38:06;9.2;;;8.3;;
68319;SDS011;55168;51.120;17.024;2022-10-16T01:39:01;9.2;;;8.3;;
68319;SDS011;55168;51.120;17.024;2022-10-16T01:40:02;9.2;;;8.3;;
68319;SDS011;55168;51.120;17.024;2022-10-16T01:41:02;9.2;;;8.3;;
68319;SDS011;55168;51.120;17.024;2022-10-16T01:42:06;8.9;;;8.0;;
68319;SDS011;55168;51.120;17.024;2022-10-16T01:43:03;8.9;;;8.0;;
68319;SDS011;55168;51.120;17.024;2022-10-16T01:45:00;8.9;;;8.0;;
68319;SDS011;55168;51.120;17.024;2022-10-16T01:46:01;8.9;;;8.0;;
68319;SDS011;55168;51.120;17.024;2022-10-16T01:47:00;9.5;;;8.2;;
68319;SDS011;55168;51.120;17.024;2022-10-16T01:48:01;9.5;;;8.2;;
68319;SDS011;55168;51.120;17.024;2022-10-16T01:49:01;9.5;;;8.2;;
68319;SDS011;55168;51.120;17.024;2022-10-16T01:50:02;9.5;;;8.2;;
68319;SDS011;55168;51.120;17.024;2022-10-16T01:51:06;9.5;;;8.2;;
68319;SDS011;55168;51.120;17.024;2022-10-16T01:52:03;8.8;;;7.9;;
68319;SDS011;55168;51.120;17.024;2022-10-16T01:53:01;8.8;;;7.9;;
68319;SDS011;55168;51.120;17.024;2022-10-16T01:54:01;8.8;;;7.9;;
68319;SDS011;55168;51.120;17.024;2022-10-16T01:55:02;8.8;;;7.9;;
68319;SDS011;55168;51.120;17.024;2022-10-16T01:56:02;8.8;;;7.9;;
68319;SDS011;55168;51.120;17.024;2022-10-16T01:57:01;9.8;;;8.8;;
68319;SDS011;55168;51.120;17.024;2022-10-16T01:58:01;9.8;;;8.8;;
68319;SDS011;55168;51.120;17.024;2022-10-16T01:59:09;9.8;;;8.8;;
68319;SDS011;55168;51.120;17.024;2022-10-16T02:00:07;9.8;;;8.8;;
68319;SDS011;55168;51.120;17.024;2022-10-16T02:01:01;9.8;;;8.8;;
68319;SDS011;55168;51.120;17.024;2022-10-16T02:02:03;9.0;;;8.1;;
68319;SDS011;55168;51.120;17.024;2022-10-16T02:03:01;9.0;;;8.1;;
68319;SDS011;55168;51.120;17.024;2022-10-16T02:04:05;9.0;;;8.1;;
68319;SDS011;55168;51.120;17.024;2022-10-16T02:05:11;9.0;;;8.1;;
68319;SDS011;55168;51.120;17.024;2022-10-16T02:06:00;9.0;;;8.1;;
68319;SDS011;55168;51.120;17.024;2022-10-16T02:07:00;9.6;;;8.2;;
68319;SDS011;55168;51.120;17.024;2022-10-16T02:08:00;9.6;;;8.2;;
68319;SDS011;55168;51.120;17.024;2022-10-16T02:09:00;9.6;;;8.2;;
68319;SDS011;55168;51.120;17.024;2022-10-16T02:10:00;9.6;;;8.2;;
68319;SDS011;55168;51.120;17.024;2022-10-16T02:11:00;9.6;;;8.2;;
68319;SDS011;55168;51.120;17.024;2022-10-16T02:12:03;9.2;;;8.3;;
68319;SDS011;55168;51.120;17.024;2022-10-16T02:13:06;9.2;;;8.3;;
68319;SDS011;55168;51.120;17.024;2022-10-16T02:14:04;9.2;;;8.3;;
68319;SDS011;55168;51.120;17.024;2022-10-16T02:15:00;9.2;;;8.3;;
68319;SDS011;55168;51.120;17.024;2022-10-16T02:16:00;9.2;;;8.3;;
68319;SDS011;55168;51.120;17.024;2022-10-16T02:17:00;9.6;;;8.3;;
68319;SDS011;55168;51.120;17.024;2022-10-16T02:18:00;9.6;;;8.3;;
68319;SDS011;55168;51.120;17.024;2022-10-16T02:19:00;9.6;;;8.3;;
68319;SDS011;55168;51.120;17.024;2022-10-16T02:20:00;9.6;;;8.3;;
68319;SDS011;55168;51.120;17.024;2022-10-16T02:21:07;9.6;;;8.3;;
68319;SDS011;55168;51.120;17.024;2022-10-16T02:22:03;9.1;;;8.2;;
68319;SDS011;55168;51.120;17.024;2022-10-16T02:23:01;9.1;;;8.2;;
68319;SDS011;55168;51.120;17.024;2022-10-16T02:24:11;9.1;;;8.2;;
68319;SDS011;55168;51.120;17.024;2022-10-16T02:25:06;9.1;;;8.2;;
68319;SDS011;55168;51.120;17.024;2022-10-16T02:26:03;9.1;;;8.2;;
68319;SDS011;55168;51.120;17.024;2022-10-16T02:28:06;9.8;;;8.8;;
68319;SDS011;55168;51.120;17.024;2022-10-16T02:29:04;9.8;;;8.8;;
68319;SDS011;55168;51.120;17.024;2022-10-16T02:30:07;9.8;;;8.8;;
68319;SDS011;55168;51.120;17.024;2022-10-16T02:31:03;9.8;;;8.8;;
68319;SDS011;55168;51.120;17.024;2022-10-16T02:32:02;10.2;;;9.1;;
68319;SDS011;55168;51.120;17.024;2022-10-16T02:33:01;10.2;;;9.1;;
68319;SDS011;55168;51.120;17.024;2022-10-16T02:34:01;10.2;;;9.1;;
68319;SDS011;55168;51.120;17.024;2022-10-16T02:35:00;10.2;;;9.1;;
68319;SDS011;55168;51.120;17.024;2022-10-16T02:36:00;10.2;;;9.1;;
68319;SDS011;55168;51.120;17.024;2022-10-16T02:37:01;10.8;;;9.0;;
68319;SDS011;55168;51.120;17.024;2022-10-16T02:38:00;10.8;;;9.0;;
68319;SDS011;55168;51.120;17.024;2022-10-16T02:39:00;10.8;;;9.0;;
68319;SDS011;55168;51.120;17.024;2022-10-16T02:40:00;10.8;;;9.0;;
68319;SDS011;55168;51.120;17.024;2022-10-16T02:41:00;10.8;;;9.0;;
68319;SDS011;55168;51.120;17.024;2022-10-16T02:42:00;10.4;;;9.3;;
68319;SDS011;55168;51.120;17.024;2022-10-16T02:43:00;10.4;;;9.3;;
68319;SDS011;55168;51.120;17.024;2022-10-16T02:44:00;10.4;;;9.3;;
68319;SDS011;55168;51.120;17.024;2022-10-16T02:45:00;10.4;;;9.3;;
68319;SDS011;55168;51.120;17.024;2022-10-16T02:46:00;10.4;;;9.3;;
68319;SDS011;55168;51.120;17.024;2022-10-16T02:47:00;11.8;;;9.9;;
68319;SDS011;55168;51.120;17.024;2022-10-16T02:48:00;11.8;;;9.9;;
68319;SDS011;55168;51.120;17.024;2022-10-16T02:49:00;11.8;;;9.9;;
68319;SDS011;55168;51.120;17.024;2022-10-16T02:50:00;11.8;;;9.9;;
68319;SDS011;55168;51.120;17.024;2022-10-16T02:51:00;11.8;;;9.9;;
68319;SDS011;55168;51.120;17.024;2022-10-16T02:52:00;10.4;;;9.3;;
68319;SDS011;55168;51.120;17.024;2022-10-16T02:53:00;10.4;;;9.3;;
68319;SDS011;55168;51.120;17.024;2022-10-16T02:54:00;10.4;;;9.3;;
68319;SDS011;55168;51.120;17.024;2022-10-16T02:55:00;10.4;;;9.3;;
68319;SDS011;55168;51.120;17.024;2022-10-16T02:56:00;10.4;;;9.3;;
68319;SDS011;55168;51.120;17.024;2022-10-16T02:57:00;11.4;;;9.3;;
68319;SDS011;55168;51.120;17.024;2022-10-16T02:58:00;11.4;;;9.3;;
68319;SDS011;55168;51.120;17.024;2022-10-16T02:59:00;11.4;;;9.3;;
68319;SDS011;55168;51.120;17.024;2022-10-16T03:00:00;11.4;;;9.3;;
68319;SDS011;55168;51.120;17.024;2022-10-16T03:01:00;11.4;;;9.3;;
68319;SDS011;55168;51.120;17.024;2022-10-16T03:02:00;10.7;;;9.6;;
68319;SDS011;55168;51.120;17.024;2022-10-16T03:03:00;10.7;;;9.6;;
68319;SDS011;55168;51.120;17.024;2022-10-16T03:04:00;10.7;;;9.6;;
68319;SDS011;55168;51.120;17.024;2022-10-16T03:05:00;10.7;;;9.6;;
68319;SDS011;55168;51.120;17.024;2022-10-16T03:06:02;10.7;;;9.6;;
68319;SDS011;55168;51.120;17.024;2022-10-16T03:07:00;10.7;;;9.6;;
68319;SDS011;55168;51.120;17.024;2022-10-16T03:08:00;10.7;;;9.6;;
68319;SDS011;55168;51.120;17.024;2022-10-16T03:09:00;10.7;;;9.6;;
68319;SDS011;55168;51.120;17.024;2022-10-16T03:10:00;10.7;;;9.6;;
68319;SDS011;55168;51.120;17.024;2022-10-16T03:11:00;10.7;;;9.6;;
68319;SDS011;55168;51.120;17.024;2022-10-16T03:12:00;10.4;;;9.3;;
68319;SDS011;55168;51.120;17.024;2022-10-16T03:13:00;10.4;;;9.3;;
68319;SDS011;55168;51.120;17.024;2022-10-16T03:14:00;10.4;;;9.3;;
68319;SDS011;55168;51.120;17.024;2022-10-16T03:15:00;10.4;;;9.3;;
68319;SDS011;55168;51.120;17.024;2022-10-16T03:16:00;10.4;;;9.3;;
68319;SDS011;55168;51.120;17.024;2022-10-16T03:17:00;12.2;;;9.7;;
68319;SDS011;55168;51.120;17.024;2022-10-16T03:18:00;12.2;;;9.7;;
68319;SDS011;55168;51.120;17.024;2022-10-16T03:19:00;12.2;;;9.7;;
68319;SDS011;55168;51.120;17.024;2022-10-16T03:20:00;12.2;;;9.7;;
68319;SDS011;55168;51.120;17.024;2022-10-16T03:21:00;12.2;;;9.7;;
68319;SDS011;55168;51.120;17.024;2022-10-16T03:22:00;11.9;;;10.2;;
68319;SDS011;55168;51.120;17.024;2022-10-16T03:23:00;11.9;;;10.2;;
68319;SDS011;55168;51.120;17.024;2022-10-16T03:24:00;11.9;;;10.2;;
68319;SDS011;55168;51.120;17.024;2022-10-16T03:25:00;11.9;;;10.2;;
68319;SDS011;55168;51.120;17.024;2022-10-16T03:26:00;11.9;;;10.2;;
68319;SDS011;55168;51.120;17.024;2022-10-16T03:27:00;10.7;;;9.6;;
68319;SDS011;55168;51.120;17.024;2022-10-16T03:28:00;10.7;;;9.6;;
68319;SDS011;55168;51.120;17.024;2022-10-16T03:29:00;10.7;;;9.6;;
68319;SDS011;55168;51.120;17.024;2022-10-16T03:30:00;10.7;;;9.6;;
68319;SDS011;55168;51.120;17.024;2022-10-16T03:31:00;10.7;;;9.6;;
68319;SDS011;55168;51.120;17.024;2022-10-16T03:32:00;10.9;;;9.8;;
68319;SDS011;55168;51.120;17.024;2022-10-16T03:33:00;10.9;;;9.8;;
68319;SDS011;55168;51.120;17.024;2022-10-16T03:34:00;10.9;;;9.8;;
68319;SDS011;55168;51.120;17.024;2022-10-16T03:35:00;10.9;;;9.8;;
68319;SDS011;55168;51.120;17.024;2022-10-16T03:36:00;10.9;;;9.8;;
68319;SDS011;55168;51.120;17.024;2022-10-16T03:37:00;10.9;;;9.8;;
68319;SDS011;55168;51.120;17.024;2022-10-16T03:38:00;10.9;;;9.8;;
68319;SDS011;55168;51.120;17.024;2022-10-16T03:39:00;10.9;;;9.8;;
68319;SDS011;55168;51.120;17.024;2022-10-16T03:40:00;10.9;;;9.8;;
68319;SDS011;55168;51.120;17.024;2022-10-16T03:41:00;10.9;;;9.8;;
68319;SDS011;55168;51.120;17.024;2022-10-16T03:42:00;10.7;;;9.6;;
68319;SDS011;55168;51.120;17.024;2022-10-16T03:43:00;10.7;;;9.6;;
68319;SDS011;55168;51.120;17.024;2022-10-16T03:44:00;10.7;;;9.6;;
68319;SDS011;55168;51.120;17.024;2022-10-16T03:45:00;10.7;;;9.6;;
68319;SDS011;55168;51.120;17.024;2022-10-16T03:46:00;10.7;;;9.6;;
68319;SDS011;55168;51.120;17.024;2022-10-16T03:47:00;11.8;;;10.5;;
68319;SDS011;55168;51.120;17.024;2022-10-16T03:48:00;11.8;;;10.5;;
68319;SDS011;55168;51.120;17.024;2022-10-16T03:49:00;11.8;;;10.5;;
68319;SDS011;55168;51.120;17.024;2022-10-16T03:50:00;11.8;;;10.5;;
68319;SDS011;55168;51.120;17.024;2022-10-16T03:51:00;11.8;;;10.5;;
68319;SDS011;55168;51.120;17.024;2022-10-16T03:52:00;11.0;;;9.8;;
68319;SDS011;55168;51.120;17.024;2022-10-16T03:53:00;11.0;;;9.8;;
68319;SDS011;55168;51.120;17.024;2022-10-16T03:54:00;11.0;;;9.8;;
68319;SDS011;55168;51.120;17.024;2022-10-16T03:55:00;11.0;;;9.8;;
68319;SDS011;55168;51.120;17.024;2022-10-16T03:56:02;11.0;;;9.8;;
68319;SDS011;55168;51.120;17.024;2022-10-16T03:57:00;11.4;;;9.9;;
68319;SDS011;55168;51.120;17.024;2022-10-16T03:58:00;11.4;;;9.9;;
68319;SDS011;55168;51.120;17.024;2022-10-16T03:59:00;11.4;;;9.9;;
68319;SDS011;55168;51.120;17.024;2022-10-16T04:00:00;11.4;;;9.9;;
68319;SDS011;55168;51.120;17.024;2022-10-16T04:01:00;11.4;;;9.9;;
68319;SDS011;55168;51.120;17.024;2022-10-16T04:02:00;12.0;;;10.3;;
68319;SDS011;55168;51.120;17.024;2022-10-16T04:03:00;12.0;;;10.3;;
68319;SDS011;55168;51.120;17.024;2022-10-16T04:04:00;12.0;;;10.3;;
68319;SDS011;55168;51.120;17.024;2022-10-16T04:05:00;12.0;;;10.3;;
68319;SDS011;55168;51.120;17.024;2022-10-16T04:06:00;12.0;;;10.3;;
68319;SDS011;55168;51.120;17.024;2022-10-16T04:07:00;10.2;;;9.2;;
68319;SDS011;55168;51.120;17.024;2022-10-16T04:08:00;10.2;;;9.2;;
68319;SDS011;55168;51.120;17.024;2022-10-16T04:09:00;10.2;;;9.2;;
68319;SDS011;55168;51.120;17.024;2022-10-16T04:10:00;10.2;;;9.2;;
68319;SDS011;55168;51.120;17.024;2022-10-16T04:11:00;10.2;;;9.2;;
68319;SDS011;55168;51.120;17.024;2022-10-16T04:12:00;10.9;;;9.8;;
68319;SDS011;55168;51.120;17.024;2022-10-16T04:13:00;10.9;;;9.8;;
68319;SDS011;55168;51.120;17.024;2022-10-16T04:14:00;10.9;;;9.8;;
68319;SDS011;55168;51.120;17.024;2022-10-16T04:15:00;10.9;;;9.8;;
68319;SDS011;55168;51.120;17.024;2022-10-16T04:16:00;10.9;;;9.8;;
68319;SDS011;55168;51.120;17.024;2022-10-16T04:17:00;12.3;;;10.5;;
68319;SDS011;55168;51.120;17.024;2022-10-16T04:18:00;12.3;;;10.5;;
68319;SDS011;55168;51.120;17.024;2022-10-16T04:19:00;12.3;;;10.5;;
68319;SDS011;55168;51.120;17.024;2022-10-16T04:20:00;12.3;;;10.5;;
68319;SDS011;55168;51.120;17.024;2022-10-16T04:21:04;18.6;;;12.3;;
68319;SDS011;55168;51.120;17.024;2022-10-16T04:22:00;18.6;;;12.3;;
68319;SDS011;55168;51.120;17.024;2022-10-16T04:23:00;18.6;;;12.3;;
68319;SDS011;55168;51.120;17.024;2022-10-16T04:24:00;18.6;;;12.3;;
68319;SDS011;55168;51.120;17.024;2022-10-16T04:25:00;18.6;;;12.3;;
68319;SDS011;55168;51.120;17.024;2022-10-16T04:26:01;18.6;;;12.3;;
68319;SDS011;55168;51.120;17.024;2022-10-16T04:27:07;14.4;;;12.9;;
68319;SDS011;55168;51.120;17.024;2022-10-16T04:28:00;14.4;;;12.9;;
68319;SDS011;55168;51.120;17.024;2022-10-16T04:29:00;14.4;;;12.9;;
68319;SDS011;55168;51.120;17.024;2022-10-16T04:30:00;14.4;;;12.9;;
68319;SDS011;55168;51.120;17.024;2022-10-16T04:31:00;14.4;;;12.9;;
68319;SDS011;55168;51.120;17.024;2022-10-16T04:32:00;14.4;;;12.6;;
68319;SDS011;55168;51.120;17.024;2022-10-16T04:33:00;14.4;;;12.6;;
68319;SDS011;55168;51.120;17.024;2022-10-16T04:34:00;14.4;;;12.6;;
68319;SDS011;55168;51.120;17.024;2022-10-16T04:35:00;14.4;;;12.6;;
68319;SDS011;55168;51.120;17.024;2022-10-16T04:36:01;14.4;;;12.6;;
68319;SDS011;55168;51.120;17.024;2022-10-16T04:37:01;14.1;;;12.6;;
68319;SDS011;55168;51.120;17.024;2022-10-16T04:38:00;14.1;;;12.6;;
68319;SDS011;55168;51.120;17.024;2022-10-16T04:39:00;14.1;;;12.6;;
68319;SDS011;55168;51.120;17.024;2022-10-16T04:40:00;14.1;;;12.6;;
68319;SDS011;55168;51.120;17.024;2022-10-16T04:41:00;14.1;;;12.6;;
68319;SDS011;55168;51.120;17.024;2022-10-16T04:42:00;15.5;;;12.2;;
68319;SDS011;55168;51.120;17.024;2022-10-16T04:43:00;15.5;;;12.2;;
68319;SDS011;55168;51.120;17.024;2022-10-16T04:44:04;15.5;;;12.2;;
68319;SDS011;55168;51.120;17.024;2022-10-16T04:45:00;15.5;;;12.2;;
68319;SDS011;55168;51.120;17.024;2022-10-16T04:46:00;15.5;;;12.2;;
68319;SDS011;55168;51.120;17.024;2022-10-16T04:47:00;13.1;;;11.5;;
68319;SDS011;55168;51.120;17.024;2022-10-16T04:48:00;13.1;;;11.5;;
68319;SDS011;55168;51.120;17.024;2022-10-16T04:49:00;13.1;;;11.5;;
68319;SDS011;55168;51.120;17.024;2022-10-16T04:50:00;13.1;;;11.5;;
68319;SDS011;55168;51.120;17.024;2022-10-16T04:51:00;13.1;;;11.5;;
68319;SDS011;55168;51.120;17.024;2022-10-16T04:52:00;14.9;;;12.2;;
68319;SDS011;55168;51.120;17.024;2022-10-16T04:53:00;14.9;;;12.2;;
68319;SDS011;55168;51.120;17.024;2022-10-16T04:54:00;14.9;;;12.2;;
68319;SDS011;55168;51.120;17.024;2022-10-16T04:55:00;14.9;;;12.2;;
68319;SDS011;55168;51.120;17.024;2022-10-16T04:56:00;14.9;;;12.2;;
68319;SDS011;55168;51.120;17.024;2022-10-16T04:57:00;14.0;;;11.9;;
68319;SDS011;55168;51.120;17.024;2022-10-16T04:58:00;14.0;;;11.9;;
68319;SDS011;55168;51.120;17.024;2022-10-16T04:59:00;14.0;;;11.9;;
68319;SDS011;55168;51.120;17.024;2022-10-16T05:00:00;14.0;;;11.9;;
68319;SDS011;55168;51.120;17.024;2022-10-16T05:01:00;11.3;;;10.2;;
68319;SDS011;55168;51.120;17.024;2022-10-16T05:02:00;11.3;;;10.2;;
68319;SDS011;55168;51.120;17.024;2022-10-16T05:03:00;11.3;;;10.2;;
68319;SDS011;55168;51.120;17.024;2022-10-16T05:04:00;11.3;;;10.2;;
68319;SDS011;55168;51.120;17.024;2022-10-16T05:05:00;11.3;;;10.2;;
68319;SDS011;55168;51.120;17.024;2022-10-16T05:06:00;11.3;;;10.0;;
68319;SDS011;55168;51.120;17.024;2022-10-16T05:07:00;11.3;;;10.0;;
68319;SDS011;55168;51.120;17.024;2022-10-16T05:08:00;11.3;;;10.0;;
68319;SDS011;55168;51.120;17.024;2022-10-16T05:09:00;11.3;;;10.0;;
68319;SDS011;55168;51.120;17.024;2022-10-16T05:10:00;11.3;;;10.0;;
68319;SDS011;55168;51.120;17.024;2022-10-16T05:11:00;10.0;;;8.9;;
68319;SDS011;55168;51.120;17.024;2022-10-16T05:12:00;10.0;;;8.9;;
68319;SDS011;55168;51.120;17.024;2022-10-16T05:13:00;10.0;;;8.9;;
68319;SDS011;55168;51.120;17.024;2022-10-16T05:14:00;10.0;;;8.9;;
68319;SDS011;55168;51.120;17.024;2022-10-16T05:15:00;10.0;;;8.9;;
68319;SDS011;55168;51.120;17.024;2022-10-16T05:16:00;11.6;;;9.7;;
68319;SDS011;55168;51.120;17.024;2022-10-16T05:17:00;11.6;;;9.7;;
68319;SDS011;55168;51.120;17.024;2022-10-16T05:18:00;11.6;;;9.7;;
68319;SDS011;55168;51.120;17.024;2022-10-16T05:19:00;11.6;;;9.7;;
68319;SDS011;55168;51.120;17.024;2022-10-16T05:20:00;11.6;;;9.7;;
68319;SDS011;55168;51.120;17.024;2022-10-16T05:21:00;10.4;;;9.3;;
68319;SDS011;55168;51.120;17.024;2022-10-16T05:22:00;10.4;;;9.3;;
68319;SDS011;55168;51.120;17.024;2022-10-16T05:23:00;10.4;;;9.3;;
68319;SDS011;55168;51.120;17.024;2022-10-16T05:24:00;10.4;;;9.3;;
68319;SDS011;55168;51.120;17.024;2022-10-16T05:25:00;10.4;;;9.3;;
68319;SDS011;55168;51.120;17.024;2022-10-16T05:26:00;9.5;;;8.5;;
68319;SDS011;55168;51.120;17.024;2022-10-16T05:27:00;9.5;;;8.5;;
68319;SDS011;55168;51.120;17.024;2022-10-16T05:28:00;9.5;;;8.5;;
68319;SDS011;55168;51.120;17.024;2022-10-16T05:29:00;9.5;;;8.5;;
68319;SDS011;55168;51.120;17.024;2022-10-16T05:30:00;9.5;;;8.5;;
68319;SDS011;55168;51.120;17.024;2022-10-16T05:31:04;9.9;;;8.9;;
68319;SDS011;55168;51.120;17.024;2022-10-16T05:32:00;9.9;;;8.9;;
68319;SDS011;55168;51.120;17.024;2022-10-16T05:33:00;9.9;;;8.9;;
68319;SDS011;55168;51.120;17.024;2022-10-16T05:34:00;9.9;;;8.9;;
68319;SDS011;55168;51.120;17.024;2022-10-16T05:35:00;9.9;;;8.9;;
68319;SDS011;55168;51.120;17.024;2022-10-16T05:36:03;9.9;;;8.9;;
68319;SDS011;55168;51.120;17.024;2022-10-16T05:37:00;9.9;;;8.9;;
68319;SDS011;55168;51.120;17.024;2022-10-16T05:38:00;9.9;;;8.9;;
68319;SDS011;55168;51.120;17.024;2022-10-16T05:39:00;9.9;;;8.9;;
68319;SDS011;55168;51.120;17.024;2022-10-16T05:40:00;9.9;;;8.9;;
68319;SDS011;55168;51.120;17.024;2022-10-16T05:41:00;11.4;;;9.0;;
68319;SDS011;55168;51.120;17.024;2022-10-16T05:42:00;11.4;;;9.0;;
68319;SDS011;55168;51.120;17.024;2022-10-16T05:43:00;11.4;;;9.0;;
68319;SDS011;55168;51.120;17.024;2022-10-16T05:44:00;11.4;;;9.0;;
68319;SDS011;55168;51.120;17.024;2022-10-16T05:45:00;11.4;;;9.0;;
68319;SDS011;55168;51.120;17.024;2022-10-16T05:46:03;9.6;;;8.6;;
68319;SDS011;55168;51.120;17.024;2022-10-16T05:47:00;9.6;;;8.6;;
68319;SDS011;55168;51.120;17.024;2022-10-16T05:48:00;9.6;;;8.6;;
68319;SDS011;55168;51.120;17.024;2022-10-16T05:49:00;9.6;;;8.6;;
68319;SDS011;55168;51.120;17.024;2022-10-16T05:50:00;9.6;;;8.6;;
68319;SDS011;55168;51.120;17.024;2022-10-16T05:51:03;9.5;;;8.5;;
68319;SDS011;55168;51.120;17.024;2022-10-16T05:52:00;9.5;;;8.5;;
68319;SDS011;55168;51.120;17.024;2022-10-16T05:53:00;9.5;;;8.5;;
68319;SDS011;55168;51.120;17.024;2022-10-16T05:54:00;9.5;;;8.5;;
68319;SDS011;55168;51.120;17.024;2022-10-16T05:55:00;9.5;;;8.5;;
68319;SDS011;55168;51.120;17.024;2022-10-16T05:56:00;10.0;;;8.3;;
68319;SDS011;55168;51.120;17.024;2022-10-16T05:57:00;10.0;;;8.3;;
68319;SDS011;55168;51.120;17.024;2022-10-16T05:58:00;10.0;;;8.3;;
68319;SDS011;55168;51.120;17.024;2022-10-16T05:59:00;10.0;;;8.3;;
68319;SDS011;55168;51.120;17.024;2022-10-16T06:00:00;10.0;;;8.3;;
68319;SDS011;55168;51.120;17.024;2022-10-16T06:01:02;9.6;;;8.6;;
68319;SDS011;55168;51.120;17.024;2022-10-16T06:02:00;9.6;;;8.6;;
68319;SDS011;55168;51.120;17.024;2022-10-16T06:03:00;9.6;;;8.6;;
68319;SDS011;55168;51.120;17.024;2022-10-16T06:04:00;9.6;;;8.6;;
68319;SDS011;55168;51.120;17.024;2022-10-16T06:05:00;9.6;;;8.6;;